ZKJEE NZWB-NZNS
Flight info
| Callsign | ZKJEE |
|---|---|
| Flight time | 0h 34m |
| Altitude | 10000 |
| Route | LUBSI |
| Aircraft | DHC6/L-SDFGR/G |
Departure
| Time | 2026-04-27 09:38 |
|---|---|
| Airport | Woodbourne Airport (NZWB) |
Arrival
| Time | 2026-04-27 10:12 |
|---|---|
| Airport | Nelson Airport (NZNS) |
| Time | Latitude | Longitude | Altitude | Speed | Heading |
|---|---|---|---|---|---|
| 2026-04-27 09:32 | -41.51827 | 173.86154 | 115 ft | 0 kts | 86° |
| 2026-04-27 09:37 | -41.51818 | 173.86310 | 115 ft | 55 kts | 85° |
| 2026-04-27 09:37 | -41.51766 | 173.87139 | 115 ft | 117 kts | 85° |
| 2026-04-27 09:37 | -41.51693 | 173.88298 | 269 ft | 128 kts | 85° |
| 2026-04-27 09:38 | -41.51528 | 173.89451 | 505 ft | 133 kts | 60° |
| 2026-04-27 09:38 | -41.50957 | 173.90414 | 921 ft | 129 kts | 48° |
| 2026-04-27 09:38 | -41.50370 | 173.91352 | 1234 ft | 134 kts | 51° |
| 2026-04-27 09:38 | -41.49790 | 173.92344 | 1540 ft | 138 kts | 52° |
| 2026-04-27 09:39 | -41.49218 | 173.93387 | 1845 ft | 141 kts | 54° |
| 2026-04-27 09:39 | -41.48661 | 173.94460 | 2139 ft | 144 kts | 54° |
| 2026-04-27 09:39 | -41.48102 | 173.95585 | 2450 ft | 146 kts | 55° |
| 2026-04-27 09:39 | -41.47560 | 173.96719 | 2753 ft | 146 kts | 58° |
| 2026-04-27 09:40 | -41.47015 | 173.97899 | 3057 ft | 147 kts | 57° |
| 2026-04-27 09:40 | -41.46492 | 173.99057 | 3353 ft | 149 kts | 57° |
| 2026-04-27 09:40 | -41.45957 | 174.00239 | 3652 ft | 150 kts | 56° |
| 2026-04-27 09:40 | -41.45414 | 174.01448 | 3953 ft | 152 kts | 57° |
| 2026-04-27 09:41 | -41.44875 | 174.02657 | 4249 ft | 154 kts | 56° |
| 2026-04-27 09:41 | -41.44331 | 174.03882 | 4546 ft | 156 kts | 57° |
| 2026-04-27 09:41 | -41.43763 | 174.05144 | 4848 ft | 159 kts | 57° |
| 2026-04-27 09:41 | -41.43073 | 174.06298 | 5150 ft | 160 kts | 46° |
| 2026-04-27 09:42 | -41.42563 | 174.07019 | 5352 ft | 162 kts | 45° |
| 2026-04-27 09:42 | -41.41526 | 174.08477 | 5754 ft | 164 kts | 45° |
| 2026-04-27 09:42 | -41.41013 | 174.09222 | 5955 ft | 165 kts | 46° |
| 2026-04-27 09:42 | -41.40235 | 174.10366 | 6259 ft | 166 kts | 46° |
| 2026-04-27 09:43 | -41.39307 | 174.11210 | 6543 ft | 161 kts | 9° |
| 2026-04-27 09:43 | -41.38284 | 174.10974 | 6841 ft | 148 kts | 321° |
| 2026-04-27 09:43 | -41.37605 | 174.09994 | 7166 ft | 142 kts | 301° |
| 2026-04-27 09:43 | -41.37005 | 174.08948 | 7467 ft | 144 kts | 304° |
| 2026-04-27 09:44 | -41.36323 | 174.07983 | 7766 ft | 146 kts | 311° |
| 2026-04-27 09:44 | -41.35553 | 174.07078 | 8071 ft | 146 kts | 313° |
| 2026-04-27 09:44 | -41.34827 | 174.06152 | 8362 ft | 143 kts | 301° |
| 2026-04-27 09:44 | -41.34681 | 174.04915 | 8663 ft | 137 kts | 258° |
| 2026-04-27 09:45 | -41.34996 | 174.03723 | 8976 ft | 137 kts | 249° |
| 2026-04-27 09:45 | -41.35369 | 174.02566 | 9274 ft | 137 kts | 248° |
| 2026-04-27 09:45 | -41.35756 | 174.01408 | 9573 ft | 137 kts | 248° |
| 2026-04-27 09:45 | -41.36151 | 174.00246 | 9834 ft | 140 kts | 248° |
| 2026-04-27 09:46 | -41.36564 | 173.99038 | 9963 ft | 149 kts | 248° |
| 2026-04-27 09:46 | -41.37003 | 173.97752 | 10002 ft | 159 kts | 248° |
| 2026-04-27 09:46 | -41.37471 | 173.96374 | 10005 ft | 164 kts | 248° |
| 2026-04-27 09:46 | -41.37936 | 173.94980 | 10003 ft | 166 kts | 249° |
| 2026-04-27 09:47 | -41.38406 | 173.93550 | 10001 ft | 168 kts | 248° |
| 2026-04-27 09:47 | -41.38873 | 173.92143 | 10001 ft | 168 kts | 249° |
| 2026-04-27 09:47 | -41.39337 | 173.90724 | 10000 ft | 169 kts | 249° |
| 2026-04-27 09:47 | -41.39821 | 173.89265 | 9999 ft | 169 kts | 243° |
| 2026-04-27 09:48 | -41.40284 | 173.87848 | 10000 ft | 169 kts | 243° |
| 2026-04-27 09:48 | -41.40757 | 173.86390 | 10000 ft | 170 kts | 243° |
| 2026-04-27 09:48 | -41.41221 | 173.84958 | 10000 ft | 170 kts | 243° |
| 2026-04-27 09:48 | -41.41691 | 173.83518 | 10000 ft | 170 kts | 243° |
| 2026-04-27 09:49 | -41.42172 | 173.82066 | 10000 ft | 170 kts | 243° |
| 2026-04-27 09:49 | -41.42644 | 173.80617 | 10000 ft | 170 kts | 243° |
| 2026-04-27 09:49 | -41.43126 | 173.79155 | 10000 ft | 171 kts | 243° |
| 2026-04-27 09:49 | -41.43595 | 173.77718 | 10000 ft | 171 kts | 243° |
| 2026-04-27 09:50 | -41.44070 | 173.76275 | 10000 ft | 171 kts | 243° |
| 2026-04-27 09:50 | -41.44540 | 173.74828 | 10000 ft | 170 kts | 243° |
| 2026-04-27 09:50 | -41.45018 | 173.73381 | 10000 ft | 170 kts | 243° |
| 2026-04-27 09:50 | -41.45490 | 173.71939 | 10000 ft | 170 kts | 243° |
| 2026-04-27 09:51 | -41.45962 | 173.70495 | 10000 ft | 170 kts | 243° |
| 2026-04-27 09:51 | -41.46460 | 173.69061 | 9998 ft | 169 kts | 238° |
| 2026-04-27 09:51 | -41.47108 | 173.67786 | 10001 ft | 168 kts | 232° |
| 2026-04-27 09:51 | -41.47837 | 173.66530 | 10001 ft | 168 kts | 232° |
| 2026-04-27 09:52 | -41.48551 | 173.65335 | 10000 ft | 167 kts | 230° |
| 2026-04-27 09:52 | -41.49275 | 173.64103 | 10000 ft | 167 kts | 231° |
| 2026-04-27 09:52 | -41.49984 | 173.62875 | 10000 ft | 167 kts | 231° |
| 2026-04-27 09:52 | -41.50690 | 173.61646 | 10000 ft | 167 kts | 231° |
| 2026-04-27 09:53 | -41.51391 | 173.60423 | 10000 ft | 167 kts | 231° |
| 2026-04-27 09:53 | -41.52105 | 173.59176 | 10000 ft | 167 kts | 231° |
| 2026-04-27 09:53 | -41.52811 | 173.57941 | 10000 ft | 167 kts | 231° |
| 2026-04-27 09:53 | -41.53521 | 173.56705 | 10000 ft | 168 kts | 231° |
| 2026-04-27 09:54 | -41.54230 | 173.55465 | 10000 ft | 168 kts | 231° |
| 2026-04-27 09:54 | -41.54938 | 173.54237 | 10000 ft | 168 kts | 231° |
| 2026-04-27 09:54 | -41.55641 | 173.53005 | 10000 ft | 168 kts | 231° |
| 2026-04-27 09:54 | -41.56353 | 173.51746 | 10000 ft | 168 kts | 231° |
| 2026-04-27 09:55 | -41.57055 | 173.50520 | 10000 ft | 168 kts | 231° |
| 2026-04-27 09:55 | -41.57694 | 173.49193 | 10000 ft | 169 kts | 242° |
| 2026-04-27 09:55 | -41.58514 | 173.46266 | 10000 ft | 169 kts | 248° |
| 2026-04-27 09:56 | -41.58905 | 173.44778 | 10000 ft | 169 kts | 248° |
| 2026-04-27 09:56 | -41.59313 | 173.43318 | 10001 ft | 168 kts | 249° |
| 2026-04-27 09:56 | -41.59737 | 173.41864 | 10000 ft | 167 kts | 249° |
| 2026-04-27 09:56 | -41.60160 | 173.40424 | 10000 ft | 166 kts | 249° |
| 2026-04-27 09:57 | -41.60579 | 173.38986 | 10000 ft | 166 kts | 249° |
| 2026-04-27 09:57 | -41.60991 | 173.37549 | 10000 ft | 166 kts | 249° |
| 2026-04-27 09:57 | -41.61403 | 173.36112 | 10000 ft | 166 kts | 249° |
| 2026-04-27 09:57 | -41.61830 | 173.34672 | 10000 ft | 166 kts | 249° |
| 2026-04-27 09:58 | -41.62241 | 173.33247 | 10000 ft | 166 kts | 249° |
| 2026-04-27 09:58 | -41.62656 | 173.31810 | 10000 ft | 166 kts | 248° |
| 2026-04-27 09:58 | -41.63081 | 173.30362 | 10000 ft | 166 kts | 248° |
| 2026-04-27 09:58 | -41.63500 | 173.28933 | 10000 ft | 166 kts | 248° |
| 2026-04-27 09:59 | -41.63920 | 173.27492 | 10000 ft | 166 kts | 248° |
| 2026-04-27 09:59 | -41.64328 | 173.26056 | 10000 ft | 166 kts | 248° |
| 2026-04-27 09:59 | -41.64742 | 173.24625 | 10000 ft | 166 kts | 248° |
| 2026-04-27 09:59 | -41.64901 | 173.23098 | 10003 ft | 168 kts | 271° |
| 2026-04-27 10:00 | -41.64665 | 173.21556 | 10004 ft | 170 kts | 281° |
| 2026-04-27 10:00 | -41.64337 | 173.20018 | 10003 ft | 170 kts | 283° |
| 2026-04-27 10:00 | -41.64022 | 173.18504 | 10000 ft | 169 kts | 282° |
| 2026-04-27 10:00 | -41.63743 | 173.16982 | 10000 ft | 168 kts | 280° |
| 2026-04-27 10:01 | -41.63496 | 173.15465 | 10000 ft | 167 kts | 279° |
| 2026-04-27 10:01 | -41.63257 | 173.13960 | 10000 ft | 167 kts | 279° |
| 2026-04-27 10:01 | -41.63004 | 173.12444 | 10000 ft | 167 kts | 280° |
| 2026-04-27 10:01 | -41.62489 | 173.11054 | 10001 ft | 172 kts | 305° |
| 2026-04-27 10:02 | -41.61555 | 173.09977 | 10005 ft | 176 kts | 317° |
| 2026-04-27 10:02 | -41.60559 | 173.09057 | 10001 ft | 177 kts | 319° |
| 2026-04-27 10:02 | -41.59547 | 173.08110 | 10000 ft | 177 kts | 317° |
| 2026-04-27 10:02 | -41.58556 | 173.07109 | 10000 ft | 177 kts | 316° |
| 2026-04-27 10:03 | -41.57593 | 173.06094 | 10000 ft | 176 kts | 315° |
| 2026-04-27 10:03 | -41.56632 | 173.05076 | 10000 ft | 177 kts | 315° |
| 2026-04-27 10:03 | -41.55663 | 173.04083 | 9886 ft | 171 kts | 316° |
| 2026-04-27 10:03 | -41.54750 | 173.03139 | 9622 ft | 160 kts | 315° |
| 2026-04-27 10:04 | -41.53892 | 173.02234 | 9361 ft | 152 kts | 314° |
| 2026-04-27 10:04 | -41.53074 | 173.01380 | 9106 ft | 147 kts | 315° |
| 2026-04-27 10:04 | -41.52092 | 173.00938 | 8833 ft | 159 kts | 356° |
| 2026-04-27 10:04 | -41.51056 | 173.01508 | 8602 ft | 164 kts | 27° |
| 2026-04-27 10:05 | -41.50124 | 173.02380 | 8354 ft | 163 kts | 32° |
| 2026-04-27 10:05 | -41.49215 | 173.03275 | 8104 ft | 162 kts | 32° |
| 2026-04-27 10:05 | -41.48321 | 173.04156 | 7856 ft | 161 kts | 31° |
| 2026-04-27 10:05 | -41.47419 | 173.05041 | 7606 ft | 159 kts | 31° |
| 2026-04-27 10:06 | -41.46532 | 173.05909 | 7356 ft | 158 kts | 31° |
| 2026-04-27 10:06 | -41.45648 | 173.06772 | 7104 ft | 157 kts | 31° |
| 2026-04-27 10:06 | -41.44775 | 173.07621 | 6854 ft | 155 kts | 31° |
| 2026-04-27 10:06 | -41.43905 | 173.08464 | 6603 ft | 154 kts | 32° |
| 2026-04-27 10:07 | -41.43055 | 173.09300 | 6353 ft | 152 kts | 32° |
| 2026-04-27 10:07 | -41.42209 | 173.10135 | 6101 ft | 150 kts | 32° |
| 2026-04-27 10:07 | -41.41366 | 173.10966 | 5846 ft | 148 kts | 32° |
| 2026-04-27 10:07 | -41.40569 | 173.11750 | 5627 ft | 136 kts | 32° |
| 2026-04-27 10:08 | -41.39828 | 173.12465 | 5366 ft | 130 kts | 32° |
| 2026-04-27 10:08 | -41.39112 | 173.13164 | 5107 ft | 125 kts | 32° |
| 2026-04-27 10:08 | -41.38419 | 173.13836 | 4851 ft | 121 kts | 32° |
| 2026-04-27 10:08 | -41.37753 | 173.14479 | 4600 ft | 119 kts | 32° |
| 2026-04-27 10:09 | -41.37081 | 173.15122 | 4346 ft | 116 kts | 33° |
| 2026-04-27 10:09 | -41.36465 | 173.15721 | 4144 ft | 101 kts | 33° |
| 2026-04-27 10:09 | -41.35925 | 173.16246 | 3887 ft | 94 kts | 33° |
| 2026-04-27 10:09 | -41.35388 | 173.16759 | 3574 ft | 94 kts | 33° |
| 2026-04-27 10:10 | -41.34869 | 173.17260 | 3284 ft | 92 kts | 34° |
| 2026-04-27 10:10 | -41.34329 | 173.17737 | 2934 ft | 94 kts | 29° |
| 2026-04-27 10:10 | -41.33750 | 173.18172 | 2540 ft | 95 kts | 25° |
| 2026-04-27 10:10 | -41.33145 | 173.18551 | 2049 ft | 98 kts | 27° |
| 2026-04-27 10:11 | -41.32537 | 173.19038 | 1524 ft | 103 kts | 34° |
| 2026-04-27 10:11 | -41.31996 | 173.19628 | 1081 ft | 97 kts | 40° |
| 2026-04-27 10:11 | -41.31522 | 173.20198 | 751 ft | 89 kts | 43° |
| 2026-04-27 10:11 | -41.31100 | 173.20757 | 457 ft | 85 kts | 44° |
| 2026-04-27 10:12 | -41.30667 | 173.21315 | 143 ft | 85 kts | 43° |
| 2026-04-27 10:12 | -41.30259 | 173.21781 | 13 ft | 67 kts | 36° |
| 2026-04-27 10:12 | -41.30049 | 173.21991 | 15 ft | 5 kts | 37° |
| 2026-04-27 10:12 | -41.30048 | 173.21992 | 15 ft | 0 kts | 37° |